createdAt,value
2023-08-12T00:00:44.468Z,77.91
2023-08-12T00:03:11.305Z,77.37
2023-08-12T00:05:41.185Z,77.66
2023-08-12T00:08:07.893Z,77.44
2023-08-12T00:10:36.780Z,77.66
2023-08-12T00:13:05.791Z,77.83
2023-08-12T00:15:32.528Z,77.94
2023-08-12T00:17:59.229Z,77.32
2023-08-12T00:20:25.941Z,77.60
2023-08-12T00:22:55.520Z,77.63
2023-08-12T00:25:22.190Z,77.37
2023-08-12T00:27:48.843Z,77.18
2023-08-12T00:30:18.094Z,77.64
2023-08-12T00:32:44.920Z,77.56
2023-08-12T00:35:11.664Z,77.17
2023-08-12T00:37:38.328Z,77.34
2023-08-12T00:40:05.987Z,77.32
2023-08-12T00:42:32.733Z,77.08
2023-08-12T00:44:59.476Z,77.14
2023-08-12T00:47:29.252Z,77.34
2023-08-12T00:49:58.380Z,77.18
2023-08-12T00:52:25.351Z,77.07
2023-08-12T00:54:54.108Z,77.45
2023-08-12T00:57:21.121Z,77.08
2023-08-12T00:59:50.133Z,77.35
2023-08-12T01:02:21.317Z,77.24
2023-08-12T01:04:48.172Z,77.08
2023-08-12T01:07:15.038Z,77.29
2023-08-12T01:09:44.964Z,77.15
2023-08-12T01:12:22.183Z,76.84
2023-08-12T01:15:10.283Z,77.06
2023-08-12T01:17:42.606Z,76.89
2023-08-12T01:20:15.827Z,76.82
2023-08-12T01:22:45.689Z,76.59
2023-08-12T01:25:14.573Z,76.62
2023-08-12T01:27:41.187Z,76.75
2023-08-12T01:30:11.851Z,76.63
2023-08-12T01:32:49.174Z,76.60
2023-08-12T01:35:33.507Z,76.79
2023-08-12T01:38:05.178Z,76.61
2023-08-12T01:40:34.353Z,76.67
2023-08-12T01:43:08.467Z,76.30
2023-08-12T01:45:35.902Z,76.13
2023-08-12T01:48:06.311Z,76.37
2023-08-12T01:50:32.974Z,76.03
2023-08-12T01:52:59.740Z,76.40
2023-08-12T01:55:26.697Z,75.94
2023-08-12T01:57:53.348Z,75.89
2023-08-12T02:00:20.035Z,75.89
2023-08-12T02:02:47.990Z,75.84
2023-08-12T02:05:15.933Z,75.31
2023-08-12T02:07:42.594Z,75.37
2023-08-12T02:10:09.847Z,75.68
2023-08-12T02:12:36.450Z,75.64
2023-08-12T02:15:03.438Z,75.58
2023-08-12T02:17:32.292Z,75.59
2023-08-12T02:20:01.376Z,75.87
2023-08-12T02:22:30.576Z,75.63
2023-08-12T02:24:57.258Z,76.26
2023-08-12T02:27:23.829Z,75.88
2023-08-12T02:29:50.432Z,76.43
2023-08-12T02:32:17.085Z,76.62
2023-08-12T02:34:48.538Z,76.40
2023-08-12T02:37:19.997Z,76.67
2023-08-12T02:39:46.667Z,77.00
2023-08-12T02:42:15.577Z,77.04
2023-08-12T02:44:42.266Z,76.90
2023-08-12T02:47:08.947Z,77.08
2023-08-12T02:49:38.683Z,77.35
2023-08-12T02:52:05.732Z,77.38
2023-08-12T02:54:35.293Z,77.53
2023-08-12T02:57:01.909Z,77.75
2023-08-12T02:59:28.541Z,77.64
2023-08-12T03:01:55.481Z,78.28
2023-08-12T03:04:23.867Z,78.01
2023-08-12T03:06:50.455Z,78.13
2023-08-12T03:09:19.469Z,78.37
2023-08-12T03:11:46.162Z,78.56
2023-08-12T03:14:13.196Z,79.29
2023-08-12T03:16:39.832Z,79.29
2023-08-12T03:19:08.751Z,79.28
2023-08-12T03:21:35.737Z,79.46
2023-08-12T03:24:02.410Z,80.07
2023-08-12T03:26:29.224Z,80.38
2023-08-12T03:28:58.152Z,80.38
2023-08-12T03:31:24.849Z,80.37
2023-08-12T03:33:51.520Z,80.70
2023-08-12T03:36:18.179Z,80.69
2023-08-12T03:38:44.850Z,80.85
2023-08-12T03:41:14.063Z,80.83
2023-08-12T03:43:40.688Z,80.82
2023-08-12T03:46:07.333Z,81.46
2023-08-12T03:48:34.031Z,80.89
2023-08-12T03:51:00.613Z,80.81
2023-08-12T03:53:29.462Z,80.90
2023-08-12T03:56:00.874Z,80.86
2023-08-12T03:58:27.548Z,81.56
2023-08-12T04:00:54.238Z,81.36
2023-08-12T04:03:21.004Z,81.72
2023-08-12T04:05:53.371Z,81.46
2023-08-12T04:08:26.693Z,81.84
2023-08-12T04:10:55.835Z,81.60
2023-08-12T04:13:22.466Z,81.59
2023-08-12T04:15:54.318Z,81.71
2023-08-12T04:18:21.527Z,81.41
2023-08-12T04:20:52.377Z,82.09
2023-08-12T04:23:21.752Z,82.29
2023-08-12T04:25:49.300Z,82.31
2023-08-12T04:28:19.564Z,81.98
2023-08-12T04:30:48.068Z,82.46
2023-08-12T04:33:15.386Z,82.49
2023-08-12T04:35:45.241Z,82.50
2023-08-12T04:38:11.923Z,82.87
2023-08-12T04:40:42.081Z,83.02
2023-08-12T04:43:14.682Z,83.18
2023-08-12T04:45:41.337Z,83.64
2023-08-12T04:48:09.741Z,83.47
2023-08-12T04:50:36.599Z,83.80
2023-08-12T04:53:07.976Z,83.24
2023-08-12T04:55:36.242Z,83.54
2023-08-12T04:58:03.952Z,83.48
2023-08-12T05:00:31.595Z,83.01
2023-08-12T05:02:58.469Z,82.80
2023-08-12T05:05:30.107Z,83.04
2023-08-12T05:07:59.762Z,83.00
2023-08-12T05:10:26.481Z,82.80
2023-08-12T05:12:55.449Z,82.59
2023-08-12T05:15:26.859Z,82.36
2023-08-12T05:17:55.772Z,82.62
2023-08-12T05:20:22.504Z,82.10
2023-08-12T05:22:51.440Z,81.95
2023-08-12T05:25:18.061Z,82.23
2023-08-12T05:27:44.950Z,81.68
2023-08-12T05:30:12.266Z,81.61
2023-08-12T05:32:41.216Z,81.10
2023-08-12T05:35:10.641Z,81.00
2023-08-12T05:37:42.328Z,81.11
2023-08-12T05:40:12.825Z,80.85
2023-08-12T05:42:41.793Z,81.14
2023-08-12T05:45:09.065Z,80.53
2023-08-12T05:47:38.163Z,80.89
2023-08-12T05:50:05.316Z,80.56
2023-08-12T05:52:32.079Z,80.08
2023-08-12T05:55:01.123Z,79.84
2023-08-12T05:57:29.670Z,79.72
2023-08-12T05:59:56.848Z,79.26
2023-08-12T06:02:23.655Z,79.06
2023-08-12T06:04:52.673Z,78.81
2023-08-12T06:07:19.636Z,78.88
2023-08-12T06:09:46.330Z,78.51
2023-08-12T06:12:15.323Z,78.10
2023-08-12T06:14:42.158Z,77.64
2023-08-12T06:17:11.248Z,77.95
2023-08-12T06:19:37.915Z,78.03
2023-08-12T06:22:04.673Z,77.31
2023-08-12T06:24:31.309Z,77.30
2023-08-12T06:26:58.085Z,76.78
2023-08-12T06:29:27.034Z,76.04
2023-08-12T06:31:56.913Z,75.99
2023-08-12T06:34:23.616Z,75.47
2023-08-12T06:36:54.699Z,75.14
2023-08-12T06:39:21.306Z,74.49
2023-08-12T06:41:52.189Z,74.35
2023-08-12T06:44:21.059Z,74.02
2023-08-12T06:46:47.714Z,73.66
2023-08-12T06:49:14.402Z,73.29
2023-08-12T06:51:41.002Z,72.03
2023-08-12T06:54:07.862Z,72.60
2023-08-12T06:56:34.753Z,70.98
2023-08-12T06:59:01.411Z,70.72
2023-08-12T07:01:30.365Z,69.68
2023-08-12T07:03:57.270Z,68.68
2023-08-12T07:06:28.839Z,68.35
2023-08-12T07:08:55.597Z,66.61
2023-08-12T07:11:22.323Z,65.55
2023-08-12T07:13:51.591Z,64.24
2023-08-12T07:16:20.703Z,61.64
2023-08-12T07:18:47.404Z,60.11
2023-08-12T07:21:14.143Z,58.77
2023-08-12T07:23:44.085Z,58.25
2023-08-12T07:26:15.503Z,58.47
2023-08-12T07:28:45.037Z,57.64
2023-08-12T07:31:13.918Z,56.61
2023-08-12T07:33:40.734Z,55.37
2023-08-12T07:36:09.926Z,55.03
2023-08-12T07:38:36.629Z,54.33
2023-08-12T07:41:05.811Z,52.89
2023-08-12T07:43:32.526Z,51.61
2023-08-12T07:46:09.425Z,49.96
2023-08-12T07:48:36.490Z,48.46
2023-08-12T07:51:03.401Z,46.84
2023-08-12T07:53:30.066Z,46.37
2023-08-12T07:55:59.195Z,44.92
2023-08-12T07:58:25.837Z,43.79
2023-08-12T08:00:57.093Z,42.35
2023-08-12T08:03:23.829Z,41.32
2023-08-12T08:05:55.004Z,40.22
2023-08-12T08:08:21.790Z,39.63
2023-08-12T08:10:51.556Z,38.01
2023-08-12T08:13:22.806Z,37.39
2023-08-12T08:15:49.530Z,38.15
2023-08-12T08:18:19.651Z,37.42
2023-08-12T08:20:48.595Z,37.02
2023-08-12T08:23:15.378Z,36.58
2023-08-12T08:25:45.027Z,35.70
2023-08-12T08:28:11.912Z,35.25
2023-08-12T08:30:38.870Z,35.01
2023-08-12T08:33:09.485Z,36.27
2023-08-12T08:35:36.312Z,36.90
2023-08-12T08:38:03.069Z,37.32
2023-08-12T08:40:29.742Z,37.03
2023-08-12T08:43:05.275Z,37.84
2023-08-12T08:45:33.911Z,37.83
2023-08-12T08:48:04.159Z,37.00
2023-08-12T08:50:34.988Z,36.97
2023-08-12T08:53:06.051Z,36.88
2023-08-12T08:55:33.324Z,37.57
2023-08-12T08:58:06.005Z,37.19
2023-08-12T09:00:35.888Z,38.17
2023-08-12T09:03:03.927Z,38.10
2023-08-12T09:05:32.074Z,38.12
2023-08-12T09:08:00.436Z,37.93
2023-08-12T09:10:29.669Z,38.65
2023-08-12T09:13:00.250Z,38.80
2023-08-12T09:15:27.424Z,38.07
2023-08-12T09:17:54.349Z,38.32
2023-08-12T09:20:22.353Z,38.95
2023-08-12T09:22:56.950Z,38.11
2023-08-12T09:25:25.704Z,38.45
2023-08-12T09:27:55.985Z,38.57
2023-08-12T09:30:23.449Z,38.83
2023-08-12T09:33:05.598Z,39.12
2023-08-12T09:35:42.857Z,39.96
2023-08-12T09:38:14.133Z,40.48
2023-08-12T09:40:41.199Z,42.57
2023-08-12T09:43:08.455Z,44.25
2023-08-12T09:45:38.816Z,45.45
2023-08-12T09:48:10.955Z,46.11
2023-08-12T09:50:42.329Z,47.48
2023-08-12T09:53:10.670Z,47.99
2023-08-12T09:55:42.561Z,49.45
2023-08-12T09:58:11.322Z,50.47
2023-08-12T10:00:38.330Z,51.77
2023-08-12T10:03:08.033Z,53.14
2023-08-12T10:05:35.404Z,53.47
2023-08-12T10:08:05.116Z,54.09
2023-08-12T10:10:33.997Z,54.86
2023-08-12T10:13:03.717Z,55.48
2023-08-12T10:15:31.100Z,55.22
2023-08-12T10:17:57.781Z,54.96
2023-08-12T10:20:26.018Z,54.46
2023-08-12T10:22:54.753Z,53.54
2023-08-12T10:25:36.816Z,53.83
2023-08-12T10:28:04.266Z,53.23
2023-08-12T10:30:34.230Z,54.05
2023-08-12T10:33:07.489Z,53.55
2023-08-12T10:36:10.839Z,52.28
2023-08-12T10:47:49.676Z,51.50
2023-08-12T10:50:26.149Z,50.95
2023-08-12T10:52:54.631Z,50.42
2023-08-12T10:55:29.259Z,50.13
2023-08-12T10:57:59.469Z,50.06
2023-08-12T11:00:30.532Z,49.44
2023-08-12T11:03:00.041Z,49.82
2023-08-12T11:05:40.313Z,49.14
2023-08-12T11:08:07.539Z,49.48
2023-08-12T11:10:41.095Z,49.35
2023-08-12T11:13:09.998Z,49.27
2023-08-12T11:15:47.325Z,49.33
2023-08-12T11:18:15.813Z,49.75
2023-08-12T11:20:42.805Z,49.42
2023-08-12T11:23:10.788Z,49.71
2023-08-12T11:25:39.717Z,49.82
2023-08-12T11:28:07.670Z,49.86
2023-08-12T11:30:34.647Z,49.88
2023-08-12T11:33:05.056Z,50.48
2023-08-12T11:35:31.846Z,50.40
2023-08-12T11:38:00.029Z,50.18
2023-08-12T11:40:28.346Z,50.39
2023-08-12T11:42:56.023Z,50.25
2023-08-12T11:45:25.197Z,50.43
2023-08-12T11:47:56.357Z,50.57
2023-08-12T11:50:28.025Z,50.51
2023-08-12T11:52:57.185Z,51.28
2023-08-12T11:55:27.714Z,50.59
2023-08-12T11:57:54.512Z,50.95
2023-08-12T12:00:21.613Z,50.33
2023-08-12T12:02:54.204Z,50.84
2023-08-12T12:05:25.390Z,52.20
2023-08-12T12:07:53.879Z,52.58
2023-08-12T12:10:23.419Z,52.85
2023-08-12T12:12:50.369Z,52.50
2023-08-12T12:15:17.290Z,52.66
2023-08-12T12:17:47.044Z,52.96
2023-08-12T12:20:15.477Z,52.79
2023-08-12T12:22:46.505Z,52.85
2023-08-12T12:25:17.488Z,52.23
2023-08-12T12:27:46.596Z,51.66
2023-08-12T12:30:14.669Z,51.45
2023-08-12T12:32:41.603Z,50.46
2023-08-12T12:35:08.853Z,50.16
2023-08-12T12:37:37.357Z,50.33
2023-08-12T12:40:05.348Z,49.91
2023-08-12T12:42:34.994Z,49.84
2023-08-12T12:45:01.689Z,48.79
2023-08-12T12:47:28.347Z,49.21
2023-08-12T12:49:58.186Z,48.99
2023-08-12T12:52:27.252Z,49.22
2023-08-12T12:54:54.095Z,49.41
2023-08-12T12:57:20.785Z,49.35
2023-08-12T12:59:50.415Z,49.97
2023-08-12T13:02:19.502Z,50.26
2023-08-12T13:04:46.258Z,49.77
2023-08-12T13:07:12.917Z,49.77
2023-08-12T13:09:42.371Z,49.54
2023-08-12T13:12:11.766Z,49.88
2023-08-12T13:14:38.727Z,50.61
2023-08-12T13:17:05.421Z,51.34
2023-08-12T13:19:32.222Z,51.75
2023-08-12T13:22:03.562Z,51.33
2023-08-12T13:24:32.760Z,51.75
2023-08-12T13:27:00.604Z,52.55
2023-08-12T13:29:31.557Z,53.08
2023-08-12T13:31:58.212Z,54.09
2023-08-12T13:34:26.927Z,54.50
2023-08-12T13:36:53.568Z,54.33
2023-08-12T13:39:20.363Z,53.13
2023-08-12T13:41:48.468Z,53.40
2023-08-12T13:44:15.098Z,52.92
2023-08-12T13:46:41.756Z,53.42
2023-08-12T13:49:08.372Z,52.77
2023-08-12T13:51:37.244Z,52.71
2023-08-12T13:54:04.261Z,53.13
2023-08-12T13:56:33.184Z,52.23
2023-08-12T13:59:02.068Z,52.82
2023-08-12T14:01:31.020Z,52.46
2023-08-12T14:03:57.692Z,52.30
2023-08-12T14:06:24.367Z,52.35
2023-08-12T14:08:51.058Z,52.99
2023-08-12T14:11:17.749Z,52.25
2023-08-12T14:13:44.444Z,53.39
2023-08-12T14:16:11.250Z,52.65
2023-08-12T14:18:40.228Z,53.03
2023-08-12T14:21:07.122Z,52.55
2023-08-12T14:23:33.826Z,52.86
2023-08-12T14:26:00.485Z,53.13
2023-08-12T14:28:27.149Z,52.83
2023-08-12T14:30:55.410Z,53.09
2023-08-12T14:33:24.384Z,53.71
2023-08-12T14:35:52.445Z,53.18
2023-08-12T14:38:19.090Z,53.91
2023-08-12T14:40:51.805Z,53.85
2023-08-12T14:43:18.607Z,53.93
2023-08-12T14:45:48.363Z,53.89
2023-08-12T14:48:19.334Z,53.67
2023-08-12T14:50:48.679Z,54.30
2023-08-12T14:53:15.403Z,54.63
2023-08-12T14:55:42.325Z,53.89
2023-08-12T14:58:11.998Z,54.47
2023-08-12T15:00:38.733Z,53.57
2023-08-12T15:03:05.799Z,53.54
2023-08-12T15:05:32.538Z,54.71
2023-08-12T15:08:03.332Z,54.25
2023-08-12T15:10:31.651Z,53.92
2023-08-12T15:12:58.425Z,53.72
2023-08-12T15:15:27.631Z,54.21
2023-08-12T15:17:56.560Z,54.11
2023-08-12T15:20:23.260Z,54.62
2023-08-12T15:22:50.960Z,54.63
2023-08-12T15:25:17.840Z,54.10
2023-08-12T15:27:45.064Z,54.74
2023-08-12T15:30:14.364Z,54.24
2023-08-12T15:32:43.076Z,54.86
2023-08-12T15:35:13.151Z,55.34
2023-08-12T15:37:42.255Z,55.56
2023-08-12T15:40:10.144Z,55.71
2023-08-12T15:42:39.335Z,55.21
2023-08-12T15:45:06.701Z,56.05
2023-08-12T15:47:36.859Z,55.39
2023-08-12T15:50:03.709Z,56.24
2023-08-12T15:52:34.097Z,56.32
2023-08-12T15:55:00.826Z,56.02
2023-08-12T15:57:30.973Z,56.66
2023-08-12T15:59:57.684Z,56.37
2023-08-12T16:02:24.419Z,56.01
2023-08-12T16:04:51.267Z,56.29
2023-08-12T16:07:19.710Z,56.17
2023-08-12T16:09:48.710Z,56.06
2023-08-12T16:12:20.122Z,55.70
2023-08-12T16:14:47.463Z,56.37
2023-08-12T16:17:16.659Z,55.83
2023-08-12T16:19:46.438Z,56.05
2023-08-12T16:22:14.463Z,56.70
2023-08-12T16:24:47.004Z,56.20
2023-08-12T16:27:14.285Z,56.17
2023-08-12T16:29:40.963Z,56.94
2023-08-12T16:32:08.081Z,56.56
2023-08-12T16:34:34.773Z,56.11
2023-08-12T16:37:20.346Z,56.29
2023-08-12T16:39:51.786Z,56.54
2023-08-12T16:42:22.675Z,56.79
2023-08-12T16:44:49.749Z,56.38
2023-08-12T16:47:16.473Z,56.98
2023-08-12T16:49:45.355Z,57.21
2023-08-12T16:52:14.001Z,57.09
2023-08-12T16:54:43.948Z,57.02
2023-08-12T16:57:13.503Z,57.47
2023-08-12T16:59:40.147Z,57.25
2023-08-12T17:02:07.136Z,56.99
2023-08-12T17:04:36.185Z,57.81
2023-08-12T17:07:03.295Z,57.02
2023-08-12T17:09:34.622Z,56.98
2023-08-12T17:12:02.949Z,57.01
2023-08-12T17:14:32.238Z,57.30
2023-08-12T17:16:59.008Z,57.53
2023-08-12T17:19:26.001Z,57.49
2023-08-12T17:21:53.043Z,58.15
2023-08-12T17:24:20.004Z,57.36
2023-08-12T17:26:49.046Z,57.35
2023-08-12T17:29:15.826Z,57.57
2023-08-12T17:31:44.890Z,57.85
2023-08-12T17:34:11.756Z,57.38
2023-08-12T17:36:38.587Z,57.44
2023-08-12T17:39:05.828Z,58.52
2023-08-12T17:41:37.021Z,58.30
2023-08-12T17:44:04.117Z,57.80
2023-08-12T17:46:30.850Z,58.43
2023-08-12T17:48:57.558Z,58.34
2023-08-12T17:51:27.313Z,59.14
2023-08-12T17:53:54.031Z,59.12
2023-08-12T17:56:22.978Z,58.58
2023-08-12T17:58:50.405Z,59.07
2023-08-12T18:01:17.293Z,59.05
2023-08-12T18:03:44.018Z,58.82
2023-08-12T18:06:10.847Z,59.66
2023-08-12T18:08:39.029Z,59.78
2023-08-12T18:11:05.808Z,59.92
2023-08-12T18:13:32.537Z,59.85
2023-08-12T18:16:02.755Z,60.00
2023-08-12T18:18:31.689Z,60.64
2023-08-12T18:20:58.742Z,60.88
2023-08-12T18:23:25.641Z,61.03
2023-08-12T18:25:54.501Z,61.25
2023-08-12T18:28:21.176Z,61.33
2023-08-12T18:30:47.911Z,61.83
2023-08-12T18:33:14.588Z,61.65
2023-08-12T18:35:43.489Z,62.24
2023-08-12T18:38:12.533Z,62.52
2023-08-12T18:40:41.659Z,62.58
2023-08-12T18:43:08.413Z,62.58
2023-08-12T18:45:35.100Z,62.75
2023-08-12T18:48:04.967Z,63.18
2023-08-12T18:50:31.985Z,62.97
2023-08-12T18:52:59.253Z,62.98
2023-08-12T18:55:28.565Z,62.73
2023-08-12T18:57:57.446Z,63.18
2023-08-12T19:00:24.638Z,63.52
2023-08-12T19:02:51.404Z,63.71
2023-08-12T19:05:18.261Z,63.40
2023-08-12T19:07:44.970Z,64.36
2023-08-12T19:10:11.792Z,64.07
2023-08-12T19:12:38.476Z,64.31
2023-08-12T19:15:09.941Z,64.45
2023-08-12T19:17:36.665Z,64.79
2023-08-12T19:20:06.393Z,64.88
2023-08-12T19:22:33.184Z,64.85
2023-08-12T19:25:02.143Z,64.88
2023-08-12T19:27:28.844Z,65.21
2023-08-12T19:29:55.580Z,65.55
2023-08-12T19:32:22.465Z,65.44
2023-08-12T19:34:49.148Z,65.94
2023-08-12T19:37:15.975Z,65.64
2023-08-12T19:39:42.615Z,66.00
2023-08-12T19:42:09.261Z,66.33
2023-08-12T19:44:36.032Z,66.19
2023-08-12T19:47:03.058Z,66.18
2023-08-12T19:49:30.338Z,66.46
2023-08-12T19:51:57.086Z,66.27
2023-08-12T19:54:23.997Z,66.43
2023-08-12T19:56:50.703Z,66.63
2023-08-12T19:59:17.371Z,66.44
2023-08-12T20:01:44.030Z,66.78
2023-08-12T20:04:10.806Z,66.96
2023-08-12T20:06:39.977Z,66.96
2023-08-12T20:09:10.544Z,67.45
2023-08-12T20:11:37.329Z,67.39
2023-08-12T20:14:04.271Z,67.74
2023-08-12T20:16:30.996Z,68.09
2023-08-12T20:18:57.900Z,68.17
2023-08-12T20:21:24.611Z,68.34
2023-08-12T20:23:53.381Z,68.28
2023-08-12T20:26:23.507Z,68.93
2023-08-12T20:28:50.375Z,69.03
2023-08-12T20:31:17.078Z,68.99
2023-08-12T20:33:43.760Z,69.11
2023-08-12T20:36:12.836Z,69.29
2023-08-12T20:38:39.503Z,69.47
2023-08-12T20:41:06.154Z,69.95
2023-08-12T20:43:33.003Z,69.70
2023-08-12T20:45:59.826Z,69.87
2023-08-12T20:48:26.604Z,70.22
2023-08-12T20:50:53.250Z,70.16
2023-08-12T20:53:20.065Z,70.52
2023-08-12T20:55:46.983Z,70.09
2023-08-12T20:58:13.622Z,70.56
2023-08-12T21:00:43.381Z,70.62
2023-08-12T21:03:10.801Z,70.77
2023-08-12T21:05:41.025Z,70.76
2023-08-12T21:08:07.961Z,71.04
2023-08-12T21:10:34.902Z,70.53
2023-08-12T21:13:01.526Z,70.94
2023-08-12T21:15:28.133Z,71.05
2023-08-12T21:17:55.545Z,71.03
2023-08-12T21:20:22.329Z,71.21
2023-08-12T21:22:52.097Z,71.31
2023-08-12T21:25:19.307Z,71.61
2023-08-12T21:27:45.929Z,71.40
2023-08-12T21:30:12.921Z,71.65
2023-08-12T21:32:39.680Z,72.06
2023-08-12T21:35:11.769Z,72.07
2023-08-12T21:37:38.400Z,72.32
2023-08-12T21:40:05.635Z,72.31
2023-08-12T21:42:34.766Z,72.67
2023-08-12T21:45:04.149Z,72.64
2023-08-12T21:47:30.989Z,72.61
2023-08-12T21:49:57.721Z,72.46
2023-08-12T21:52:24.479Z,72.49
2023-08-12T21:54:51.164Z,72.42
2023-08-12T21:57:17.917Z,72.83
2023-08-12T21:59:44.557Z,72.93
2023-08-12T22:02:12.026Z,72.65
2023-08-12T22:04:39.038Z,72.64
2023-08-12T22:07:07.091Z,72.58
2023-08-12T22:09:36.046Z,72.55
2023-08-12T22:12:02.824Z,72.49
2023-08-12T22:14:30.448Z,72.58
2023-08-12T22:16:58.949Z,72.20
2023-08-12T22:19:28.926Z,72.69
2023-08-12T22:22:13.100Z,72.64
2023-08-12T22:24:47.722Z,72.43
2023-08-12T22:27:16.669Z,72.59
2023-08-12T22:29:43.333Z,73.00
2023-08-12T22:32:11.139Z,72.63
2023-08-12T22:34:40.242Z,72.97
2023-08-12T22:37:07.015Z,72.79
2023-08-12T22:39:36.331Z,72.94
2023-08-12T22:42:03.021Z,73.26
2023-08-12T22:44:29.715Z,73.08
2023-08-12T22:46:58.942Z,73.57
2023-08-12T22:49:25.593Z,73.66
2023-08-12T22:51:52.351Z,73.69
2023-08-12T22:54:21.280Z,73.81
2023-08-12T22:56:50.397Z,74.17
2023-08-12T22:59:19.035Z,73.70
2023-08-12T23:01:45.928Z,73.80
2023-08-12T23:04:15.037Z,74.10
2023-08-12T23:06:41.674Z,74.19
2023-08-12T23:09:08.370Z,74.46
2023-08-12T23:11:35.068Z,74.10
2023-08-12T23:14:01.683Z,74.46
2023-08-12T23:16:30.756Z,74.46
2023-08-12T23:18:57.523Z,74.89
2023-08-12T23:21:26.700Z,74.41
2023-08-12T23:23:53.317Z,74.78
2023-08-12T23:26:19.968Z,74.57
2023-08-12T23:28:46.656Z,74.84
2023-08-12T23:31:13.344Z,74.12
2023-08-12T23:33:42.336Z,74.33
2023-08-12T23:36:13.902Z,74.33
2023-08-12T23:38:40.542Z,74.45
2023-08-12T23:41:09.759Z,74.71
2023-08-12T23:43:36.535Z,74.41
2023-08-12T23:46:07.989Z,74.69
2023-08-12T23:48:36.929Z,74.65
2023-08-12T23:51:05.821Z,74.69
2023-08-12T23:53:32.583Z,74.36
2023-08-12T23:55:59.355Z,74.36
2023-08-12T23:58:28.277Z,74.32
